Time;durP1;ratioP1;P1;durP2;ratioP2;P2;SDS_P1;SDS_P2;PMS_P1;PMS_P2;Temp;Humidity;BMP_temperature;BMP_pressure;BME280_temperature;BME280_humidity;BME280_pressure;Samples;Min_cycle;Max_cycle;Signal;HPM_P1;HPM_P2
2021/01/12 00:02:12;;;;;;;176.27;74.50;;;;;;;-1.20;60.97;99057.88;260841;1104;115566;-69
2021/01/12 00:07:24;;;;;;;161.90;72.47;;;;;;;-1.20;61.40;99054.41;260784;1104;115422;-69
2021/01/12 00:12:27;;;;;;;149.17;69.00;;;;;;;-1.28;61.19;99056.28;260897;1104;115129;-66
2021/01/12 00:17:30;;;;;;;149.93;69.50;;;;;;;-1.38;61.27;99050.32;260757;1104;115616;-65
2021/01/12 00:22:33;;;;;;;177.17;76.17;;;;;;;-1.45;60.92;99040.85;260854;1104;115410;-65
2021/01/12 00:27:35;;;;;;;171.33;74.20;;;;;;;-1.42;61.46;99046.03;260612;1104;115860;-64
2021/01/12 00:32:37;;;;;;;177.43;78.77;;;;;;;-1.41;61.57;99044.28;260617;1104;115054;-67
2021/01/12 00:37:40;;;;;;;183.90;77.63;;;;;;;-1.44;60.67;99042.57;260301;1104;115704;-71
2021/01/12 00:42:50;;;;;;;190.07;80.33;;;;;;;-1.45;61.57;99046.93;260829;1104;115331;-67
2021/01/12 00:47:53;;;;;;;180.70;72.53;;;;;;;-1.55;60.79;99053.16;260442;1104;115071;-68
2021/01/12 00:52:56;;;;;;;190.87;84.23;;;;;;;-1.58;61.81;99057.55;260767;1104;115335;-67
2021/01/12 00:57:58;;;;;;;210.73;83.93;;;;;;;-1.67;61.43;99032.43;260893;1104;115235;-67
2021/01/12 01:03:01;;;;;;;193.43;76.73;;;;;;;-1.71;61.32;99029.00;260874;1104;115221;-68
2021/01/12 01:08:05;;;;;;;176.87;75.13;;;;;;;-1.79;61.65;99030.00;260889;1104;116350;-69
2021/01/12 01:13:09;;;;;;;192.93;79.87;;;;;;;-1.84;61.81;99013.53;260711;1104;115850;-67
2021/01/12 01:18:12;;;;;;;201.53;83.80;;;;;;;-1.86;62.53;99018.78;260814;1103;115565;-65
2021/01/12 01:23:14;;;;;;;212.13;84.93;;;;;;;-1.86;62.17;99010.95;260799;1104;115236;-67
2021/01/12 01:28:27;;;;;;;198.70;83.17;;;;;;;-1.88;62.06;98990.98;260850;1104;116674;-68
2021/01/12 01:33:32;;;;;;;201.80;81.60;;;;;;;-1.91;62.51;99007.52;260872;1104;115206;-68
2021/01/12 01:38:50;;;;;;;209.27;84.93;;;;;;;-1.87;62.60;99000.52;260854;1104;115690;-69
2021/01/12 01:43:53;;;;;;;215.47;90.33;;;;;;;-1.91;62.26;98989.27;260574;1104;115992;-69
2021/01/12 01:48:55;;;;;;;204.47;88.77;;;;;;;-1.93;62.48;98988.45;260921;1103;115133;-69
2021/01/12 01:53:58;;;;;;;192.90;80.87;;;;;;;-1.93;62.64;98978.88;260835;1103;115280;-64
2021/01/12 01:59:00;;;;;;;196.60;81.33;;;;;;;-1.95;62.37;98967.59;260745;1104;115169;-66
2021/01/12 02:04:16;;;;;;;204.03;84.90;;;;;;;-1.96;62.22;98967.62;260828;1104;115211;-64
2021/01/12 02:09:32;;;;;;;205.33;87.23;;;;;;;-1.97;61.84;98961.55;260797;1103;115197;-64
2021/01/12 02:14:40;;;;;;;198.87;84.40;;;;;;;-1.99;61.55;98952.87;260868;1104;115413;-65
2021/01/12 02:19:45;;;;;;;180.03;77.20;;;;;;;-1.99;61.21;98947.66;260783;1104;115162;-64
2021/01/12 02:24:48;;;;;;;195.03;79.53;;;;;;;-1.99;62.73;98946.80;258589;1104;115247;-63
2021/01/12 02:29:52;;;;;;;205.73;85.07;;;;;;;-1.99;62.28;98933.76;258022;1104;116155;-66
2021/01/12 02:34:59;;;;;;;202.53;79.80;;;;;;;-2.01;62.11;98933.77;260948;1104;115406;-67
2021/01/12 02:40:01;;;;;;;221.00;88.43;;;;;;;-2.05;61.41;98918.19;260764;1103;115505;-68
2021/01/12 02:45:06;;;;;;;184.10;79.87;;;;;;;-2.11;61.50;98910.45;260892;1104;115359;-66
2021/01/12 02:50:11;;;;;;;209.62;86.55;;;;;;;-2.12;61.54;98898.30;260924;1104;115765;-64
2021/01/12 02:55:15;;;;;;;193.93;85.57;;;;;;;-2.12;61.52;98901.77;260938;1104;116363;-65
2021/01/12 03:00:18;;;;;;;198.40;83.40;;;;;;;-2.18;61.23;98892.27;260919;1103;115156;-65
2021/01/12 03:05:21;;;;;;;185.90;76.20;;;;;;;-2.22;61.27;98887.98;260808;1104;115329;-64
2021/01/12 03:10:23;;;;;;;196.07;76.87;;;;;;;-2.28;61.82;98872.42;260842;1104;115307;-63
2021/01/12 03:15:25;;;;;;;180.17;75.20;;;;;;;-2.33;61.55;98857.75;260689;1104;115309;-63
2021/01/12 03:20:27;;;;;;;156.73;65.47;;;;;;;-2.29;61.53;98856.83;260752;1104;115739;-64
2021/01/12 03:25:30;;;;;;;160.97;69.70;;;;;;;-2.30;61.72;98842.08;260830;1104;115698;-64
2021/01/12 03:30:32;;;;;;;182.50;76.20;;;;;;;-2.33;61.54;98829.09;260629;1104;115210;-66
2021/01/12 03:35:35;;;;;;;148.03;60.23;;;;;;;-2.33;61.90;98822.13;260655;1104;115162;-66
2021/01/12 03:40:37;;;;;;;163.17;67.23;;;;;;;-2.32;62.59;98821.23;260799;1104;116402;-64
2021/01/12 03:45:39;;;;;;;139.10;56.10;;;;;;;-2.31;61.57;98809.95;260890;1104;115168;-64
2021/01/12 03:50:42;;;;;;;148.77;64.03;;;;;;;-2.29;62.32;98802.95;260853;1104;115342;-63
2021/01/12 03:55:44;;;;;;;156.17;65.57;;;;;;;-2.19;62.37;98796.73;260823;1103;115195;-63
2021/01/12 04:00:46;;;;;;;160.23;65.80;;;;;;;-2.13;62.29;98794.93;260808;1104;115081;-62
2021/01/12 04:05:51;;;;;;;135.10;57.33;;;;;;;-2.13;61.90;98792.32;260770;1104;115160;-63
2021/01/12 04:10:53;;;;;;;147.10;60.93;;;;;;;-2.07;61.37;98785.27;260787;1104;115119;-63
2021/01/12 04:16:01;;;;;;;132.97;58.10;;;;;;;-2.01;62.27;98779.08;260901;1104;115138;-63
2021/01/12 04:21:04;;;;;;;149.83;59.93;;;;;;;-1.97;60.97;98775.53;260772;1104;116416;-64
2021/01/12 04:26:07;;;;;;;144.20;62.03;;;;;;;-2.05;62.04;98770.45;260927;1104;116163;-65
2021/01/12 04:31:09;;;;;;;146.83;63.23;;;;;;;-2.15;60.59;98750.63;260943;1103;115481;-66
2021/01/12 04:36:12;;;;;;;153.07;66.07;;;;;;;-2.22;60.45;98751.61;260479;1104;115073;-64
2021/01/12 04:41:18;;;;;;;150.77;65.07;;;;;;;-2.26;60.66;98742.98;260842;1104;115265;-66
2021/01/12 04:46:20;;;;;;;163.03;70.30;;;;;;;-2.30;60.25;98735.23;260408;1104;115593;-65
2021/01/12 04:51:25;;;;;;;166.43;73.10;;;;;;;-2.38;61.74;98722.30;260582;1104;115142;-67
2021/01/12 04:56:27;;;;;;;174.90;74.23;;;;;;;-2.42;60.72;98718.03;259263;1105;115376;-71
2021/01/12 05:01:32;;;;;;;170.57;71.70;;;;;;;-2.46;61.30;98701.58;260943;1104;115202;-68
2021/01/12 05:06:38;;;;;;;172.10;74.03;;;;;;;-2.46;62.01;98705.94;260439;1104;115096;-68
2021/01/12 05:11:42;;;;;;;158.73;70.40;;;;;;;-2.46;61.17;98701.58;260748;1104;115081;-69
2021/01/12 05:16:49;;;;;;;168.43;67.40;;;;;;;-2.42;61.44;98700.65;260838;1104;115441;-67
2021/01/12 05:22:09;;;;;;;159.57;70.63;;;;;;;-2.43;60.88;98695.47;260713;1104;115145;-68
2021/01/12 05:27:11;;;;;;;167.13;66.77;;;;;;;-2.42;60.97;98695.44;260926;1104;115334;-68
2021/01/12 05:32:16;;;;;;;161.00;68.90;;;;;;;-2.42;60.62;98691.98;260892;1104;115150;-66
2021/01/12 05:37:21;;;;;;;152.30;66.28;;;;;;;-2.39;60.86;98684.11;260876;1103;116912;-66
2021/01/12 05:42:23;;;;;;;148.93;65.83;;;;;;;-2.38;60.92;98675.41;260813;1104;116118;-68
2021/01/12 05:47:26;;;;;;;145.20;63.83;;;;;;;-2.41;61.71;98665.06;260809;1104;116139;-70
2021/01/12 05:52:42;;;;;;;151.00;64.67;;;;;;;-2.44;60.90;98657.29;260687;1104;116012;-70
2021/01/12 05:57:52;;;;;;;151.97;65.13;;;;;;;-2.49;61.51;98639.11;260535;1104;115599;-67
2021/01/12 06:03:01;;;;;;;163.60;68.97;;;;;;;-2.47;60.93;98632.14;260787;1104;115315;-68
2021/01/12 06:08:06;;;;;;;157.53;67.70;;;;;;;-2.46;61.35;98631.24;260538;1104;116170;-67
2021/01/12 06:13:17;;;;;;;167.33;72.17;;;;;;;-2.48;60.77;98621.72;260766;1104;115345;-66
2021/01/12 06:18:20;;;;;;;172.50;75.87;;;;;;;-2.51;60.91;98622.66;260739;1104;115351;-66
2021/01/12 06:23:44;;;;;;;181.40;76.57;;;;;;;-2.58;61.39;98614.95;259614;1103;116007;-69
2021/01/12 06:28:56;;;;;;;;;;;;;;;;;;;;;
2021/01/12 06:33:59;;;;;;;192.37;83.13;;;;;;;-2.59;60.83;98593.25;260691;1103;115058;-68
2021/01/12 06:39:04;;;;;;;180.83;76.10;;;;;;;-2.58;61.32;98604.53;260841;1104;115241;-72
2021/01/12 06:44:20;;;;;;;180.93;76.50;;;;;;;-2.56;61.09;98606.23;260858;1104;115573;-71
2021/01/12 06:49:31;;;;;;;180.33;78.10;;;;;;;-2.58;61.79;98605.41;260370;1104;115938;-72
2021/01/12 06:54:40;;;;;;;185.87;81.27;;;;;;;-2.58;61.58;98607.13;260621;1104;116224;-73
2021/01/12 06:59:56;;;;;;;200.13;87.37;;;;;;;-2.60;61.99;98596.75;260846;1103;115377;-73
2021/01/12 07:05:06;;;;;;;179.90;78.20;;;;;;;-2.54;61.32;98595.80;260772;1104;115953;-66
2021/01/12 07:10:14;;;;;;;178.87;78.13;;;;;;;-2.48;60.85;98585.25;260849;1104;116895;-69
2021/01/12 07:15:21;;;;;;;190.70;82.57;;;;;;;-2.45;61.81;98593.88;260834;1104;115874;-69
2021/01/12 07:20:34;;;;;;;180.03;79.87;;;;;;;-2.38;61.71;98565.97;260574;1104;115099;-68
2021/01/12 07:25:45;;;;;;;192.83;84.20;;;;;;;-2.29;62.28;98570.17;260730;1104;115340;-69
2021/01/12 07:30:52;;;;;;;194.20;84.77;;;;;;;-2.25;61.33;98562.27;259705;1104;115266;-66
2021/01/12 07:35:57;;;;;;;177.07;77.90;;;;;;;-2.23;61.31;98555.29;260453;1104;116579;-66
2021/01/12 07:41:03;;;;;;;194.53;82.43;;;;;;;-2.21;61.32;98550.92;260931;1104;115393;-67
2021/01/12 07:46:09;;;;;;;188.73;82.90;;;;;;;-2.12;61.74;98541.20;256841;1104;116140;-69
2021/01/12 07:51:12;;;;;;;190.67;83.20;;;;;;;-2.03;62.22;98533.20;260762;1104;115832;-68
2021/01/12 07:56:14;;;;;;;183.60;77.73;;;;;;;-2.00;62.34;98530.55;260786;1104;115679;-66
2021/01/12 08:01:25;;;;;;;178.67;76.93;;;;;;;-1.94;62.50;98519.97;260852;1104;115369;-66
2021/01/12 08:06:27;;;;;;;183.30;77.63;;;;;;;-1.86;61.70;98520.69;260451;1104;115906;-67
2021/01/12 08:11:30;;;;;;;171.90;73.00;;;;;;;-1.76;62.20;98511.78;260757;1104;115781;-67
2021/01/12 08:16:33;;;;;;;175.27;76.77;;;;;;;-1.58;61.62;98502.69;260901;1104;115533;-67
2021/01/12 08:21:40;;;;;;;163.87;72.63;;;;;;;-1.43;62.11;98488.44;260720;1104;115412;-67
2021/01/12 08:26:46;;;;;;;153.40;68.53;;;;;;;-1.27;62.99;98481.97;260483;1104;115324;-64
2021/01/12 08:31:54;;;;;;;161.30;70.97;;;;;;;-1.13;62.56;98476.42;260868;1104;115867;-65
2021/01/12 08:37:02;;;;;;;128.63;57.17;;;;;;;-1.01;61.12;98462.23;260793;1104;115532;-64
2021/01/12 08:42:06;;;;;;;117.87;50.43;;;;;;;-0.87;61.20;98462.73;260851;1104;116284;-64
2021/01/12 08:47:09;;;;;;;120.47;51.10;;;;;;;-0.70;62.32;98449.24;260652;1104;115845;-64
2021/01/12 08:52:16;;;;;;;88.80;40.73;;;;;;;-0.54;60.74;98453.17;260940;1104;115941;-64
2021/01/12 08:57:19;;;;;;;87.93;38.83;;;;;;;-0.35;60.84;98453.51;260819;1104;115152;-64
2021/01/12 09:02:21;;;;;;;90.83;38.67;;;;;;;-0.15;60.62;98442.49;260867;1104;115459;-64
2021/01/12 09:07:24;;;;;;;83.00;36.40;;;;;;;0.01;60.99;98435.08;260818;1104;116037;-64
2021/01/12 09:12:27;;;;;;;81.73;35.47;;;;;;;0.16;60.34;98425.91;260852;1104;115004;-64
2021/01/12 09:17:29;;;;;;;71.27;33.57;;;;;;;0.31;60.36;98428.07;260703;1104;114987;-64
2021/01/12 09:22:31;;;;;;;77.83;35.07;;;;;;;0.49;59.93;98418.78;260766;1104;115201;-64
2021/01/12 09:27:34;;;;;;;71.67;32.07;;;;;;;0.76;59.28;98410.95;260828;1104;115204;-64
2021/01/12 09:32:36;;;;;;;73.30;30.70;;;;;;;0.90;58.66;98401.73;260858;1103;114969;-65
2021/01/12 09:37:39;;;;;;;62.87;27.77;;;;;;;1.08;59.30;98407.25;260864;1104;115647;-66
2021/01/12 09:42:44;;;;;;;60.50;28.07;;;;;;;1.25;58.33;98389.18;260677;1104;115206;-66
2021/01/12 09:47:47;;;;;;;69.60;30.73;;;;;;;1.34;58.31;98381.00;260805;1104;115080;-66
2021/01/12 09:52:49;;;;;;;59.27;29.10;;;;;;;1.52;57.74;98373.39;260789;1104;115661;-65
2021/01/12 09:57:52;;;;;;;64.87;28.77;;;;;;;1.74;58.40;98362.98;260804;1104;115143;-65
2021/01/12 10:02:55;;;;;;;63.33;26.90;;;;;;;1.92;57.79;98353.55;260782;1105;115186;-66
2021/01/12 10:07:57;;;;;;;64.23;29.17;;;;;;;2.15;57.30;98343.02;260824;1104;116548;-64
2021/01/12 10:13:00;;;;;;;61.30;27.50;;;;;;;2.32;57.21;98330.08;260906;1104;114921;-64
2021/01/12 10:18:02;;;;;;;52.70;25.77;;;;;;;2.59;57.27;98325.48;260908;1104;114917;-64
2021/01/12 10:23:06;;;;;;;53.53;25.73;;;;;;;2.83;57.01;98315.72;260908;1103;115235;-65
2021/01/12 10:28:08;;;;;;;49.80;23.37;;;;;;;2.95;56.71;98298.55;260668;1104;115420;-65
2021/01/12 10:33:10;;;;;;;47.20;21.53;;;;;;;3.04;56.43;98289.44;258748;1104;115321;-67
2021/01/12 10:38:13;;;;;;;46.77;23.13;;;;;;;3.14;56.32;98279.37;260867;1104;115849;-64
2021/01/12 10:43:15;;;;;;;43.17;21.67;;;;;;;3.20;55.81;98264.18;260693;1104;114979;-67
2021/01/12 10:48:17;;;;;;;56.70;24.70;;;;;;;3.29;55.57;98253.26;260877;1104;114950;-64
2021/01/12 10:53:21;;;;;;;57.77;25.77;;;;;;;3.36;55.37;98238.02;260876;1104;115072;-64
2021/01/12 10:58:23;;;;;;;53.43;27.57;;;;;;;3.37;55.54;98233.64;260770;1104;114952;-64
2021/01/12 11:03:27;;;;;;;64.00;27.10;;;;;;;3.36;55.57;98232.77;260855;1104;114841;-64
2021/01/12 11:08:29;;;;;;;58.57;25.63;;;;;;;3.34;55.76;98210.97;260850;1104;114949;-64
2021/01/12 11:13:32;;;;;;;60.83;26.70;;;;;;;3.37;55.75;98223.13;260443;1104;115022;-64
2021/01/12 11:18:35;;;;;;;71.60;28.00;;;;;;;3.42;55.02;98214.08;260871;1104;115935;-64
2021/01/12 11:23:37;;;;;;;59.73;26.87;;;;;;;3.50;55.87;98200.59;260893;1104;115045;-65
2021/01/12 11:28:40;;;;;;;60.20;27.40;;;;;;;3.52;55.47;98183.80;260822;1104;115463;-66
2021/01/12 11:33:42;;;;;;;77.73;30.60;;;;;;;3.61;55.09;98179.89;260906;1104;115024;-64
2021/01/12 11:38:44;;;;;;;58.93;24.77;;;;;;;3.67;55.38;98171.70;260926;1104;115389;-65
2021/01/12 11:43:47;;;;;;;53.87;24.53;;;;;;;3.75;54.71;98158.17;260816;1104;115122;-64
2021/01/12 11:48:50;;;;;;;54.67;22.33;;;;;;;3.81;55.39;98155.25;260925;1104;115020;-65
2021/01/12 11:53:54;;;;;;;51.63;23.40;;;;;;;3.88;54.51;98146.12;260573;1104;116132;-64
2021/01/12 11:58:56;;;;;;;45.20;21.40;;;;;;;4.00;55.21;98134.97;260831;1104;115228;-65
2021/01/12 12:03:58;;;;;;;48.13;21.40;;;;;;;4.10;54.54;98118.72;260871;1104;115830;-65
2021/01/12 12:09:03;;;;;;;37.43;17.87;;;;;;;4.20;54.86;98101.52;260789;1104;115004;-67
2021/01/12 12:14:08;;;;;;;26.70;13.60;;;;;;;4.30;54.99;98094.84;260770;1104;115129;-66
2021/01/12 12:19:11;;;;;;;25.13;9.13;;;;;;;4.36;55.21;98080.52;260694;1104;115209;-64
2021/01/12 12:24:26;;;;;;;21.53;8.47;;;;;;;4.40;54.14;98077.63;260853;1103;114276;-65
2021/01/12 12:29:29;;;;;;;19.60;7.37;;;;;;;4.47;55.26;98068.47;259914;1104;114745;-64
2021/01/12 12:34:32;;;;;;;20.70;7.53;;;;;;;4.54;55.09;98073.42;260781;1104;115044;-66
2021/01/12 12:39:36;;;;;;;20.70;8.57;;;;;;;4.59;54.98;98052.96;260911;1103;114795;-65
2021/01/12 12:44:39;;;;;;;19.20;6.87;;;;;;;4.63;53.42;98051.86;260480;1104;115107;-65
2021/01/12 12:49:41;;;;;;;20.87;7.10;;;;;;;4.64;53.50;98048.28;260826;1104;114726;-66
2021/01/12 12:54:43;;;;;;;12.03;6.50;;;;;;;4.61;53.90;98043.17;260658;1104;115144;-64
2021/01/12 12:59:46;;;;;;;19.83;7.93;;;;;;;4.61;54.49;98030.84;260851;1104;114733;-64
2021/01/12 13:04:48;;;;;;;20.87;7.77;;;;;;;4.62;54.07;98031.69;260811;1103;114692;-64
2021/01/12 13:09:50;;;;;;;19.10;7.67;;;;;;;4.62;53.92;98026.42;260259;1104;115342;-63
2021/01/12 13:14:54;;;;;;;11.53;5.97;;;;;;;4.65;53.08;98028.89;260748;1104;114910;-64
2021/01/12 13:20:05;;;;;;;12.20;6.13;;;;;;;4.68;54.21;98026.09;260843;1104;114504;-60
2021/01/12 13:25:08;;;;;;;10.13;4.60;;;;;;;4.68;52.79;98026.09;258699;1104;115652;-62
2021/01/12 13:30:11;;;;;;;12.77;5.37;;;;;;;4.65;53.44;98013.08;260905;1104;115021;-63
2021/01/12 13:35:15;;;;;;;12.97;5.80;;;;;;;4.68;53.74;98005.02;260848;1104;114856;-64
2021/01/12 13:40:18;;;;;;;12.03;5.13;;;;;;;4.66;52.71;97997.20;258673;1104;115436;-61
2021/01/12 13:45:21;;;;;;;13.33;4.90;;;;;;;4.68;53.01;97989.20;260294;1104;116282;-61
2021/01/12 13:50:26;;;;;;;9.50;4.90;;;;;;;4.65;52.42;97984.97;260820;1104;114331;-61
2021/01/12 13:55:28;;;;;;;15.80;5.27;;;;;;;4.63;52.32;97978.92;260872;1103;114965;-61
2021/01/12 14:00:36;;;;;;;10.00;4.80;;;;;;;4.60;52.45;97965.91;260883;1104;114773;-61
2021/01/12 14:05:42;;;;;;;16.33;6.07;;;;;;;4.56;52.19;97972.30;260856;1104;114819;-67
2021/01/12 14:10:45;;;;;;;11.60;6.13;;;;;;;4.57;53.45;97958.18;260754;1104;115610;-63
2021/01/12 14:15:48;;;;;;;24.93;6.47;;;;;;;4.58;53.37;97954.59;260822;1104;114792;-62
2021/01/12 14:20:50;;;;;;;14.50;6.57;;;;;;;4.58;52.37;97945.85;260797;1104;114584;-63
2021/01/12 14:25:54;;;;;;;14.10;5.07;;;;;;;4.55;53.16;97941.59;258363;1104;114876;-65
2021/01/12 14:30:57;;;;;;;12.53;6.40;;;;;;;4.53;53.23;97932.95;259531;1103;114829;-62
2021/01/12 14:36:00;;;;;;;13.43;5.63;;;;;;;4.58;52.38;97930.05;260716;1104;115364;-64
2021/01/12 14:41:03;;;;;;;16.53;6.30;;;;;;;4.57;51.99;97912.55;259896;1104;114598;-63
2021/01/12 14:46:05;;;;;;;17.03;6.50;;;;;;;4.56;51.83;97918.76;260657;1104;114732;-63
2021/01/12 14:51:08;;;;;;;16.77;6.37;;;;;;;4.56;52.49;97913.48;260758;1104;114983;-64
2021/01/12 14:56:10;;;;;;;14.30;6.60;;;;;;;4.56;52.20;97909.06;260863;1104;115063;-64
2021/01/12 15:01:13;;;;;;;10.57;6.27;;;;;;;4.59;52.67;97897.52;260837;1104;114704;-64
2021/01/12 15:06:16;;;;;;;16.53;7.23;;;;;;;4.63;52.03;97897.24;260763;1104;116261;-68
2021/01/12 15:11:19;;;;;;;10.80;5.67;;;;;;;4.67;51.83;97887.38;260780;1104;114409;-68
2021/01/12 15:16:23;;;;;;;16.70;7.27;;;;;;;4.68;52.77;97886.44;260776;1104;114912;-66
2021/01/12 15:21:27;;;;;;;13.07;6.53;;;;;;;4.71;52.27;97883.63;260559;1104;114439;-68
2021/01/12 15:26:30;;;;;;;13.17;6.53;;;;;;;4.70;51.70;97892.48;260840;1104;114528;-68
2021/01/12 15:31:32;;;;;;;14.20;6.70;;;;;;;4.65;52.25;97878.70;257305;1104;114827;-69
2021/01/12 15:36:35;;;;;;;15.77;6.60;;;;;;;4.59;51.82;97885.19;258937;1104;115228;-71
2021/01/12 15:41:38;;;;;;;14.90;7.57;;;;;;;4.54;51.93;97875.83;260698;1103;114915;-69
2021/01/12 15:46:40;;;;;;;17.83;7.50;;;;;;;4.49;52.44;97868.20;260655;1104;115884;-70
2021/01/12 15:51:45;;;;;;;19.00;7.07;;;;;;;4.46;52.61;97866.58;259483;1104;115138;-69
2021/01/12 15:56:47;;;;;;;18.50;8.93;;;;;;;4.40;53.05;97866.91;260575;1104;114815;-69
2021/01/12 16:01:52;;;;;;;16.40;8.43;;;;;;;4.42;52.28;97857.16;260690;1104;115616;-69
2021/01/12 16:06:55;;;;;;;19.25;8.48;;;;;;;4.42;53.29;97859.78;260684;1104;116200;-68
2021/01/12 16:12:00;;;;;;;17.53;9.37;;;;;;;4.40;53.20;97863.44;259572;1104;114668;-68
2021/01/12 16:17:03;;;;;;;22.73;11.08;;;;;;;4.35;53.61;97855.80;260921;1104;115158;-68
2021/01/12 16:22:13;;;;;;;25.77;12.07;;;;;;;4.31;52.67;97856.04;258132;1105;114921;-68
2021/01/12 16:27:17;;;;;;;24.27;11.77;;;;;;;4.24;52.68;97855.53;260454;1103;115592;-69
2021/01/12 16:32:25;;;;;;;24.23;11.17;;;;;;;4.20;53.35;97859.27;257971;1103;115171;-67
2021/01/12 16:37:28;;;;;;;23.67;11.30;;;;;;;4.20;53.81;97862.75;256641;1104;115460;-70
2021/01/12 16:42:44;;;;;;;24.73;11.23;;;;;;;4.18;53.00;97856.73;259605;1104;114924;-67
2021/01/12 16:47:48;;;;;;;21.20;10.83;;;;;;;4.17;53.43;97852.38;260598;1104;115061;-67
2021/01/12 16:53:01;;;;;;;22.70;10.45;;;;;;;4.16;53.39;97849.85;260720;1104;115251;-66
2021/01/12 16:58:08;;;;;;;22.47;10.43;;;;;;;4.14;53.29;97836.75;260850;1104;114666;-69
2021/01/12 17:03:11;;;;;;;18.70;10.43;;;;;;;4.18;54.29;97845.36;260806;1104;114933;-70
2021/01/12 17:08:19;;;;;;;22.07;11.30;;;;;;;4.19;53.60;97844.42;260864;1104;115380;-67
2021/01/12 17:13:28;;;;;;;24.63;11.37;;;;;;;4.17;53.89;97838.38;260731;1104;115325;-69
2021/01/12 17:18:45;;;;;;;25.30;11.57;;;;;;;4.18;54.18;97835.67;258468;1104;115104;-69
2021/01/12 17:23:50;;;;;;;19.60;10.50;;;;;;;4.13;54.80;97836.86;260769;1103;114766;-69
2021/01/12 17:28:55;;;;;;;22.37;11.63;;;;;;;4.08;54.92;97829.22;260835;1104;115401;-69
2021/01/12 17:34:03;;;;;;;22.40;11.50;;;;;;;4.02;54.69;97832.19;260852;1104;115167;-69
2021/01/12 17:39:13;;;;;;;30.93;12.47;;;;;;;4.01;54.25;97830.50;260894;1104;115134;-69
2021/01/12 17:44:15;;;;;;;24.20;11.90;;;;;;;4.00;55.31;97823.52;260535;1104;115004;-69
2021/01/12 17:49:19;;;;;;;25.30;11.87;;;;;;;3.95;54.76;97825.56;258259;1105;115968;-66
2021/01/12 17:54:28;;;;;;;23.23;11.03;;;;;;;3.92;54.93;97826.57;260779;1104;115133;-66
2021/01/12 17:59:39;;;;;;;25.20;11.50;;;;;;;3.92;55.04;97828.36;260688;1103;115232;-67
2021/01/12 18:05:02;;;;;;;22.37;10.50;;;;;;;3.88;55.62;97818.94;260600;1104;115137;-66
2021/01/12 18:10:15;;;;;;;24.67;10.70;;;;;;;3.86;54.72;97808.48;260898;1104;117834;-66
2021/01/12 18:15:22;;;;;;;22.67;10.47;;;;;;;3.85;55.56;97809.42;260777;1104;114982;-66
2021/01/12 18:20:27;;;;;;;20.65;11.20;;;;;;;3.81;54.79;97812.31;260550;1104;115569;-66
2021/01/12 18:25:31;;;;;;;18.50;10.10;;;;;;;3.76;55.49;97807.28;260828;1104;115140;-66
2021/01/12 18:30:34;;;;;;;18.30;10.23;;;;;;;3.68;55.72;97809.49;260692;1104;116799;-65
2021/01/12 18:35:39;;;;;;;17.75;10.28;;;;;;;3.63;56.03;97816.77;260686;1104;114582;-66
2021/01/12 18:40:47;;;;;;;19.05;9.90;;;;;;;3.49;56.03;97801.72;260780;1104;114905;-66
2021/01/12 18:46:09;;;;;;;18.27;10.53;;;;;;;3.41;56.05;97801.30;260641;1104;114779;-65
2021/01/12 18:51:22;;;;;;;18.40;10.20;;;;;;;3.35;56.46;97805.09;260736;1104;115082;-67
2021/01/12 18:56:25;;;;;;;20.37;10.23;;;;;;;3.31;56.41;97795.67;260714;1104;115046;-66
2021/01/12 19:01:29;;;;;;;15.53;8.60;;;;;;;3.26;56.45;97793.30;259625;1104;114692;-68
2021/01/12 19:06:34;;;;;;;20.23;10.60;;;;;;;3.32;56.86;97789.47;260610;1104;114804;-67
2021/01/12 19:11:37;;;;;;;17.67;8.50;;;;;;;3.34;56.33;97807.81;260756;1104;114981;-67
2021/01/12 19:16:47;;;;;;;18.83;10.37;;;;;;;3.34;56.21;97798.14;260806;1104;115006;-67
2021/01/12 19:21:50;;;;;;;18.67;10.13;;;;;;;3.31;56.45;97799.14;260773;1104;114892;-67
2021/01/12 19:26:57;;;;;;;20.20;10.82;;;;;;;3.35;56.75;97794.57;260811;1103;115218;-69
2021/01/12 19:32:02;;;;;;;19.12;10.82;;;;;;;3.34;56.21;97803.41;260854;1103;115028;-66
2021/01/12 19:37:06;;;;;;;16.83;8.93;;;;;;;3.32;56.20;97802.62;260617;1104;115320;-67
2021/01/12 19:42:15;;;;;;;22.30;10.27;;;;;;;3.29;56.18;97806.28;260673;1105;115826;-67
2021/01/12 19:47:18;;;;;;;18.57;9.87;;;;;;;3.34;56.44;97818.33;260787;1104;114937;-66
2021/01/12 19:52:29;;;;;;;20.27;10.83;;;;;;;3.38;56.42;97818.08;260718;1104;115047;-66
2021/01/12 19:57:32;;;;;;;19.73;10.20;;;;;;;3.44;56.88;97814.28;260230;1104;115038;-67
2021/01/12 20:02:39;;;;;;;20.40;10.03;;;;;;;3.44;56.34;97817.77;260768;1104;114915;-66
2021/01/12 20:07:49;;;;;;;21.23;11.27;;;;;;;3.42;56.15;97818.77;260811;1104;115413;-67
2021/01/12 20:13:04;;;;;;;22.43;10.13;;;;;;;3.39;56.39;97816.30;260245;1104;114939;-66
2021/01/12 20:18:17;;;;;;;25.92;10.38;;;;;;;3.41;56.96;97812.66;260867;1104;115062;-66
2021/01/12 20:23:25;;;;;;;20.23;11.30;;;;;;;3.37;56.42;97812.91;260778;1104;115542;-66
2021/01/12 20:28:29;;;;;;;20.50;10.60;;;;;;;3.30;56.85;97818.48;260436;1104;115149;-67
2021/01/12 20:33:32;;;;;;;20.00;10.48;;;;;;;3.26;57.22;97816.08;260734;1103;115283;-68
2021/01/12 20:38:35;;;;;;;20.63;10.60;;;;;;;3.23;57.29;97809.23;260786;1104;115195;-67
2021/01/12 20:43:40;;;;;;;20.73;11.50;;;;;;;3.23;56.98;97813.64;260538;1103;114999;-64
2021/01/12 20:48:42;;;;;;;22.87;12.23;;;;;;;3.25;57.62;97811.76;260841;1104;114990;-65
2021/01/12 20:53:45;;;;;;;24.90;12.50;;;;;;;3.21;57.76;97813.70;260806;1104;114977;-65
2021/01/12 20:58:47;;;;;;;26.57;13.40;;;;;;;3.16;57.81;97820.12;260979;1104;117218;-64
2021/01/12 21:03:49;;;;;;;25.83;13.20;;;;;;;3.10;57.81;97815.20;260896;1104;115437;-64
2021/01/12 21:08:51;;;;;;;23.47;12.47;;;;;;;3.07;58.02;97814.42;260747;1103;115312;-64
2021/01/12 21:13:54;;;;;;;23.07;12.90;;;;;;;3.08;58.30;97826.62;260871;1104;115388;-65
2021/01/12 21:18:57;;;;;;;24.67;13.37;;;;;;;3.06;58.52;97820.61;260610;1104;115238;-65
2021/01/12 21:23:59;;;;;;;25.63;13.27;;;;;;;3.04;58.63;97809.31;260900;1104;115453;-64
2021/01/12 21:29:02;;;;;;;26.37;13.70;;;;;;;2.98;58.57;97816.66;260897;1103;114939;-64
2021/01/12 21:34:04;;;;;;;25.30;11.93;;;;;;;2.93;59.21;97811.66;260803;1104;115363;-64
2021/01/12 21:39:07;;;;;;;23.70;12.43;;;;;;;2.86;59.33;97822.56;260798;1104;205886;-64
2021/01/12 21:44:09;;;;;;;24.87;13.53;;;;;;;2.79;59.89;97814.98;260864;1102;114925;-65
2021/01/12 21:49:11;;;;;;;23.77;13.30;;;;;;;2.76;60.11;97817.77;260726;1104;115221;-65
2021/01/12 21:54:13;;;;;;;24.87;13.87;;;;;;;2.72;60.22;97815.38;260789;1103;115023;-68
2021/01/12 21:59:16;;;;;;;28.93;14.07;;;;;;;2.65;60.60;97813.95;260860;1104;116069;-69
2021/01/12 22:04:19;;;;;;;22.77;13.60;;;;;;;2.56;60.78;97799.52;260907;1104;115128;-69
2021/01/12 22:09:22;;;;;;;22.50;13.40;;;;;;;2.46;60.89;97801.75;260818;1104;114963;-70
2021/01/12 22:14:25;;;;;;;26.70;14.57;;;;;;;2.37;61.39;97805.66;260852;1103;115266;-68
2021/01/12 22:19:27;;;;;;;24.67;14.23;;;;;;;2.35;61.46;97801.44;260861;1104;115123;-68
2021/01/12 22:24:29;;;;;;;24.33;13.93;;;;;;;2.30;61.70;97795.54;260822;1104;115925;-69
2021/01/12 22:29:32;;;;;;;25.40;14.57;;;;;;;2.28;62.18;97800.03;260829;1104;114770;-68
2021/01/12 22:34:34;;;;;;;25.53;13.00;;;;;;;2.27;62.42;97799.16;260809;1104;114911;-69
2021/01/12 22:39:37;;;;;;;25.47;14.23;;;;;;;2.30;62.73;97788.52;260791;1103;115078;-69
2021/01/12 22:44:39;;;;;;;21.43;12.57;;;;;;;2.35;62.57;97788.30;260689;1104;115327;-69
2021/01/12 22:49:42;;;;;;;23.60;13.07;;;;;;;2.37;63.08;97786.44;260760;1104;114845;-67
2021/01/12 22:54:45;;;;;;;23.37;13.23;;;;;;;2.36;63.51;97777.72;260894;1104;114878;-68
2021/01/12 22:59:47;;;;;;;22.57;12.87;;;;;;;2.36;63.32;97793.47;260793;1104;115010;-67